createdAt,value
2018-07-31T00:05:57.162Z,100829.33
2018-07-31T00:14:18.178Z,100835.38
2018-07-31T00:22:39.331Z,100834.91
2018-07-31T00:31:00.456Z,100833.58
2018-07-31T00:39:21.480Z,100827.05
2018-07-31T00:47:42.547Z,100819.14
2018-07-31T00:56:03.586Z,100827.22
2018-07-31T01:04:24.915Z,100819.30
2018-07-31T01:12:45.978Z,100807.51
2018-07-31T01:21:06.984Z,100806.96
2018-07-31T01:29:28.084Z,100816.66
2018-07-31T01:37:49.122Z,100807.81
2018-07-31T01:46:10.147Z,100821.91
2018-07-31T01:54:31.148Z,100821.25
2018-07-31T02:05:17.967Z,100823.83
2018-07-31T02:17:13.627Z,100816.52
2018-07-31T02:25:34.647Z,100802.70
2018-07-31T02:33:55.691Z,100820.88
2018-07-31T02:42:16.783Z,100825.61
2018-07-31T02:50:37.812Z,100824.28
2018-07-31T03:01:36.732Z,100826.42
2018-07-31T03:09:57.795Z,100820.61
2018-07-31T03:18:18.818Z,100829.52
2018-07-31T03:26:39.844Z,100833.45
2018-07-31T03:35:00.898Z,100841.86
2018-07-31T03:43:21.946Z,100849.78
2018-07-31T03:51:42.975Z,100847.32
2018-07-31T04:00:03.995Z,100849.37
2018-07-31T04:08:25.030Z,100849.02
2018-07-31T04:16:46.127Z,100844.88
2018-07-31T04:25:07.126Z,100850.46
2018-07-31T04:33:28.153Z,100865.98
2018-07-31T04:41:49.210Z,100870.81
2018-07-31T04:50:10.244Z,100857.02
2018-07-31T04:58:31.278Z,100860.69
2018-07-31T05:12:53.315Z,100861.72
2018-07-31T05:21:14.355Z,100850.59
2018-07-31T05:29:36.426Z,100868.73
2018-07-31T05:37:57.498Z,100875.41
2018-07-31T05:46:18.536Z,100883.88
2018-07-31T05:54:39.603Z,100890.03
2018-07-31T06:20:51.007Z,100899.70
2018-07-31T06:29:12.031Z,100910.53
2018-07-31T06:37:33.083Z,100907.38
2018-07-31T06:47:38.313Z,100908.48
2018-07-31T06:55:59.360Z,100903.47
2018-07-31T07:05:24.640Z,100905.83
2018-07-31T07:13:45.700Z,100917.90
2018-07-31T07:22:06.707Z,100922.59
2018-07-31T07:30:27.823Z,100909.18
2018-07-31T07:38:48.955Z,100910.28
2018-07-31T07:47:09.996Z,100923.62
2018-07-31T07:55:31.431Z,100926.98
2018-07-31T08:03:52.458Z,100924.08
2018-07-31T08:12:13.562Z,100906.17
2018-07-31T08:20:34.692Z,100893.46
2018-07-31T08:28:55.737Z,100898.97
2018-07-31T08:37:16.778Z,100907.90
2018-07-31T08:45:38.135Z,100918.30
2018-07-31T08:53:59.535Z,100916.29
2018-07-31T09:02:20.593Z,100922.58
2018-07-31T09:10:41.956Z,100916.00
2018-07-31T09:19:03.057Z,100924.40
2018-07-31T09:27:24.175Z,100929.00
2018-07-31T09:35:45.208Z,100923.78
2018-07-31T09:44:06.242Z,100924.26
2018-07-31T09:52:27.266Z,100919.87
2018-07-31T10:00:48.642Z,100922.69
2018-07-31T10:09:09.769Z,100935.29
2018-07-31T10:17:30.933Z,100940.64
2018-07-31T10:25:52.252Z,100940.19
2018-07-31T10:34:13.274Z,100943.75
2018-07-31T10:42:35.381Z,100949.97
2018-07-31T10:50:56.584Z,100949.64
2018-07-31T10:59:17.598Z,100947.36
2018-07-31T11:07:38.621Z,100961.21
2018-07-31T11:15:59.888Z,100953.27
2018-07-31T11:24:21.818Z,100949.95
2018-07-31T11:32:42.960Z,100949.19
2018-07-31T11:41:07.335Z,100959.77
2018-07-31T11:49:28.383Z,100963.78
2018-07-31T11:57:49.967Z,100943.45
2018-07-31T12:06:11.105Z,100947.22
2018-07-31T12:15:00.227Z,100946.92
2018-07-31T12:23:21.568Z,100959.05
2018-07-31T12:31:42.875Z,100958.69
2018-07-31T12:40:03.973Z,100950.44
2018-07-31T12:48:25.125Z,100954.52
2018-07-31T12:56:46.188Z,100973.31
2018-07-31T13:05:07.307Z,100970.41
2018-07-31T13:13:28.617Z,100976.78
2018-07-31T13:21:49.725Z,100974.41
2018-07-31T13:30:10.886Z,100974.98
2018-07-31T13:38:31.966Z,100972.48
2018-07-31T13:46:53.354Z,100971.96
2018-07-31T13:55:14.644Z,100993.68
2018-07-31T14:03:35.698Z,100971.05
2018-07-31T14:11:56.839Z,100973.31
2018-07-31T14:20:18.172Z,100977.14
2018-07-31T14:28:39.258Z,100968.83
2018-07-31T14:37:01.829Z,100984.05
2018-07-31T14:45:22.906Z,100979.05
2018-07-31T14:53:43.959Z,100985.73
2018-07-31T15:04:57.889Z,100989.32
2018-07-31T15:13:19.242Z,100987.08
2018-07-31T15:21:40.624Z,100994.09
2018-07-31T15:30:01.701Z,100991.02
2018-07-31T15:38:23.026Z,100994.59
2018-07-31T15:46:44.109Z,100997.36
2018-07-31T15:55:05.187Z,101003.97
2018-07-31T16:03:26.399Z,100996.21
2018-07-31T16:11:47.604Z,100993.32
2018-07-31T16:22:51.998Z,101000.39
2018-07-31T16:33:47.984Z,101004.72
2018-07-31T16:42:09.083Z,101019.80
2018-07-31T16:50:30.147Z,101015.07
2018-07-31T16:58:51.252Z,101027.01
2018-07-31T17:07:12.624Z,101023.34
2018-07-31T17:15:33.749Z,101020.64
2018-07-31T17:23:54.880Z,101036.30
2018-07-31T17:32:16.013Z,101040.34
2018-07-31T17:43:21.359Z,101040.95
2018-07-31T17:51:43.483Z,101046.09
2018-07-31T18:00:04.546Z,101057.63
2018-07-31T18:08:25.572Z,101071.98
2018-07-31T18:16:46.626Z,101088.82
2018-07-31T18:25:07.663Z,101092.56
2018-07-31T18:33:28.695Z,101104.05
2018-07-31T18:41:49.744Z,101112.66
2018-07-31T18:50:10.837Z,101117.53
2018-07-31T18:58:31.839Z,101138.98
2018-07-31T19:06:52.963Z,101155.03
2018-07-31T19:15:14.229Z,101165.15
2018-07-31T19:23:35.230Z,101184.18
2018-07-31T19:31:57.355Z,101186.56
2018-07-31T19:40:18.396Z,101193.19
2018-07-31T19:48:39.480Z,101214.65
2018-07-31T19:57:00.524Z,101232.50
2018-07-31T20:05:21.939Z,101245.96
2018-07-31T20:13:42.944Z,101251.57
2018-07-31T20:22:03.966Z,101256.67
2018-07-31T20:30:25.005Z,101263.96
2018-07-31T20:53:10.674Z,101289.89
2018-07-31T21:01:31.688Z,101277.55
2018-07-31T21:09:52.803Z,101284.64
2018-07-31T21:18:13.858Z,101303.44
2018-07-31T21:26:34.839Z,101313.22
2018-07-31T21:34:55.835Z,101307.73
2018-07-31T21:43:16.894Z,101323.08
2018-07-31T21:59:56.909Z,101339.98
2018-07-31T22:16:44.539Z,101370.04
2018-07-31T22:25:05.617Z,101365.52
2018-07-31T22:33:26.600Z,101379.45
2018-07-31T22:45:43.575Z,101378.80
2018-07-31T22:54:04.622Z,101379.76
2018-07-31T23:02:26.719Z,101387.56
2018-07-31T23:10:47.844Z,101388.84
2018-07-31T23:19:11.879Z,101392.82
2018-07-31T23:27:33.928Z,101407.53
2018-07-31T23:35:54.932Z,101407.35
2018-07-31T23:44:15.932Z,101405.64
2018-07-31T23:52:36.984Z,101401.20
